sensor_id;sensor_type;location;lat;lon;timestamp;P1;durP1;ratioP1;P2;durP2;ratioP2
16159;SDS011;8185;57.818;15.224;2023-05-10T00:02:14;4.93;;;3.53;;
16159;SDS011;8185;57.818;15.224;2023-05-10T00:04:41;5.63;;;3.40;;
16159;SDS011;8185;57.818;15.224;2023-05-10T00:07:08;5.50;;;3.70;;
16159;SDS011;8185;57.818;15.224;2023-05-10T00:09:36;5.70;;;3.00;;
16159;SDS011;8185;57.818;15.224;2023-05-10T00:12:05;4.10;;;3.27;;
16159;SDS011;8185;57.818;15.224;2023-05-10T00:14:32;4.07;;;3.03;;
16159;SDS011;8185;57.818;15.224;2023-05-10T00:17:00;5.17;;;3.70;;
16159;SDS011;8185;57.818;15.224;2023-05-10T00:19:27;4.87;;;3.80;;
16159;SDS011;8185;57.818;15.224;2023-05-10T00:21:54;6.30;;;3.30;;
16159;SDS011;8185;57.818;15.224;2023-05-10T00:24:21;7.57;;;3.83;;
16159;SDS011;8185;57.818;15.224;2023-05-10T00:26:49;4.67;;;3.77;;
16159;SDS011;8185;57.818;15.224;2023-05-10T00:29:17;5.90;;;3.63;;
16159;SDS011;8185;57.818;15.224;2023-05-10T00:31:44;4.80;;;4.03;;
16159;SDS011;8185;57.818;15.224;2023-05-10T00:34:11;5.10;;;3.70;;
16159;SDS011;8185;57.818;15.224;2023-05-10T00:36:39;5.87;;;3.30;;
16159;SDS011;8185;57.818;15.224;2023-05-10T00:39:06;4.03;;;3.33;;
16159;SDS011;8185;57.818;15.224;2023-05-10T00:41:33;5.27;;;3.67;;
16159;SDS011;8185;57.818;15.224;2023-05-10T00:44:00;6.23;;;3.80;;
16159;SDS011;8185;57.818;15.224;2023-05-10T00:46:29;8.27;;;4.27;;
16159;SDS011;8185;57.818;15.224;2023-05-10T00:48:56;7.77;;;3.70;;
16159;SDS011;8185;57.818;15.224;2023-05-10T00:51:24;5.67;;;3.70;;
16159;SDS011;8185;57.818;15.224;2023-05-10T00:53:51;5.57;;;3.90;;
16159;SDS011;8185;57.818;15.224;2023-05-10T00:56:19;8.80;;;4.50;;
16159;SDS011;8185;57.818;15.224;2023-05-10T00:58:48;8.43;;;4.33;;
16159;SDS011;8185;57.818;15.224;2023-05-10T01:01:15;5.80;;;3.73;;
16159;SDS011;8185;57.818;15.224;2023-05-10T01:03:44;4.47;;;3.80;;
16159;SDS011;8185;57.818;15.224;2023-05-10T01:06:12;6.27;;;4.00;;
16159;SDS011;8185;57.818;15.224;2023-05-10T01:08:40;8.47;;;3.73;;
16159;SDS011;8185;57.818;15.224;2023-05-10T01:11:07;7.63;;;4.23;;
16159;SDS011;8185;57.818;15.224;2023-05-10T01:13:35;5.40;;;3.80;;
16159;SDS011;8185;57.818;15.224;2023-05-10T01:16:04;9.17;;;4.10;;
16159;SDS011;8185;57.818;15.224;2023-05-10T01:18:32;4.47;;;3.83;;
16159;SDS011;8185;57.818;15.224;2023-05-10T01:21:06;4.87;;;4.00;;
16159;SDS011;8185;57.818;15.224;2023-05-10T01:24:06;6.23;;;4.43;;
16159;SDS011;8185;57.818;15.224;2023-05-10T01:26:54;6.30;;;4.00;;
16159;SDS011;8185;57.818;15.224;2023-05-10T01:32:37;9.13;;;4.20;;
16159;SDS011;8185;57.818;15.224;2023-05-10T01:35:10;5.93;;;4.10;;
16159;SDS011;8185;57.818;15.224;2023-05-10T01:37:46;4.87;;;4.00;;
16159;SDS011;8185;57.818;15.224;2023-05-10T01:40:18;10.40;;;4.13;;
16159;SDS011;8185;57.818;15.224;2023-05-10T01:42:50;5.40;;;3.97;;
16159;SDS011;8185;57.818;15.224;2023-05-10T01:45:22;7.60;;;3.73;;
16159;SDS011;8185;57.818;15.224;2023-05-10T01:48:01;5.20;;;4.37;;
16159;SDS011;8185;57.818;15.224;2023-05-10T01:50:33;6.77;;;4.00;;
16159;SDS011;8185;57.818;15.224;2023-05-10T01:53:02;6.53;;;3.73;;
16159;SDS011;8185;57.818;15.224;2023-05-10T01:55:35;8.20;;;4.83;;
16159;SDS011;8185;57.818;15.224;2023-05-10T01:58:08;5.40;;;3.80;;
16159;SDS011;8185;57.818;15.224;2023-05-10T02:00:36;7.03;;;4.03;;
16159;SDS011;8185;57.818;15.224;2023-05-10T02:03:08;6.10;;;4.30;;
16159;SDS011;8185;57.818;15.224;2023-05-10T02:05:37;7.43;;;4.13;;
16159;SDS011;8185;57.818;15.224;2023-05-10T02:08:06;7.27;;;4.40;;
16159;SDS011;8185;57.818;15.224;2023-05-10T02:10:34;7.17;;;4.37;;
16159;SDS011;8185;57.818;15.224;2023-05-10T02:13:02;5.63;;;4.10;;
16159;SDS011;8185;57.818;15.224;2023-05-10T02:15:31;4.43;;;4.00;;
16159;SDS011;8185;57.818;15.224;2023-05-10T02:18:00;6.20;;;4.27;;
16159;SDS011;8185;57.818;15.224;2023-05-10T02:20:32;6.10;;;4.60;;
16159;SDS011;8185;57.818;15.224;2023-05-10T02:23:01;8.13;;;4.33;;
16159;SDS011;8185;57.818;15.224;2023-05-10T02:25:30;7.07;;;4.57;;
16159;SDS011;8185;57.818;15.224;2023-05-10T02:27:59;6.37;;;4.23;;
16159;SDS011;8185;57.818;15.224;2023-05-10T02:30:28;9.13;;;4.87;;
16159;SDS011;8185;57.818;15.224;2023-05-10T02:32:57;5.17;;;3.73;;
16159;SDS011;8185;57.818;15.224;2023-05-10T02:35:26;5.00;;;4.43;;
16159;SDS011;8185;57.818;15.224;2023-05-10T02:37:55;7.23;;;4.47;;
16159;SDS011;8185;57.818;15.224;2023-05-10T02:40:25;5.23;;;4.47;;
16159;SDS011;8185;57.818;15.224;2023-05-10T02:42:54;5.17;;;4.40;;
16159;SDS011;8185;57.818;15.224;2023-05-10T02:45:24;6.00;;;4.63;;
16159;SDS011;8185;57.818;15.224;2023-05-10T02:47:55;6.60;;;4.27;;
16159;SDS011;8185;57.818;15.224;2023-05-10T02:50:23;6.73;;;4.30;;
16159;SDS011;8185;57.818;15.224;2023-05-10T02:52:52;4.70;;;4.17;;
16159;SDS011;8185;57.818;15.224;2023-05-10T02:55:26;5.67;;;4.77;;
16159;SDS011;8185;57.818;15.224;2023-05-10T02:57:59;7.13;;;4.80;;
16159;SDS011;8185;57.818;15.224;2023-05-10T03:00:28;6.57;;;4.73;;
16159;SDS011;8185;57.818;15.224;2023-05-10T03:02:55;5.20;;;4.30;;
16159;SDS011;8185;57.818;15.224;2023-05-10T03:05:22;4.80;;;4.40;;
16159;SDS011;8185;57.818;15.224;2023-05-10T03:07:50;6.43;;;4.63;;
16159;SDS011;8185;57.818;15.224;2023-05-10T03:10:20;6.80;;;4.90;;
16159;SDS011;8185;57.818;15.224;2023-05-10T03:12:57;5.77;;;4.33;;
16159;SDS011;8185;57.818;15.224;2023-05-10T03:15:37;5.93;;;4.50;;
16159;SDS011;8185;57.818;15.224;2023-05-10T03:18:09;6.87;;;4.93;;
16159;SDS011;8185;57.818;15.224;2023-05-10T03:20:41;6.70;;;5.10;;
16159;SDS011;8185;57.818;15.224;2023-05-10T03:23:13;7.37;;;4.80;;
16159;SDS011;8185;57.818;15.224;2023-05-10T03:25:49;8.40;;;4.90;;
16159;SDS011;8185;57.818;15.224;2023-05-10T03:28:17;7.43;;;4.60;;
16159;SDS011;8185;57.818;15.224;2023-05-10T03:30:45;6.60;;;4.67;;
16159;SDS011;8185;57.818;15.224;2023-05-10T03:33:13;7.27;;;5.03;;
16159;SDS011;8185;57.818;15.224;2023-05-10T03:35:40;7.43;;;5.30;;
16159;SDS011;8185;57.818;15.224;2023-05-10T03:38:09;10.77;;;4.83;;
16159;SDS011;8185;57.818;15.224;2023-05-10T03:40:36;6.57;;;4.57;;
16159;SDS011;8185;57.818;15.224;2023-05-10T03:43:05;7.67;;;4.27;;
16159;SDS011;8185;57.818;15.224;2023-05-10T03:45:32;4.43;;;4.03;;
16159;SDS011;8185;57.818;15.224;2023-05-10T03:47:59;5.93;;;4.20;;
16159;SDS011;8185;57.818;15.224;2023-05-10T03:50:27;4.57;;;4.17;;
16159;SDS011;8185;57.818;15.224;2023-05-10T03:52:54;6.03;;;4.33;;
16159;SDS011;8185;57.818;15.224;2023-05-10T03:55:22;7.93;;;4.10;;
16159;SDS011;8185;57.818;15.224;2023-05-10T03:57:49;8.27;;;4.00;;
16159;SDS011;8185;57.818;15.224;2023-05-10T04:00:20;7.57;;;4.10;;
16159;SDS011;8185;57.818;15.224;2023-05-10T04:02:47;6.43;;;4.33;;
16159;SDS011;8185;57.818;15.224;2023-05-10T04:05:15;8.37;;;3.80;;
16159;SDS011;8185;57.818;15.224;2023-05-10T04:07:42;4.57;;;4.00;;
16159;SDS011;8185;57.818;15.224;2023-05-10T04:10:10;5.00;;;3.67;;
16159;SDS011;8185;57.818;15.224;2023-05-10T04:12:37;5.63;;;3.67;;
16159;SDS011;8185;57.818;15.224;2023-05-10T04:15:05;4.20;;;3.50;;
16159;SDS011;8185;57.818;15.224;2023-05-10T04:17:34;5.43;;;3.20;;
16159;SDS011;8185;57.818;15.224;2023-05-10T04:20:02;4.87;;;3.03;;
16159;SDS011;8185;57.818;15.224;2023-05-10T04:22:31;10.97;;;3.17;;
16159;SDS011;8185;57.818;15.224;2023-05-10T04:24:58;4.43;;;3.10;;
16159;SDS011;8185;57.818;15.224;2023-05-10T04:27:26;5.53;;;3.23;;
16159;SDS011;8185;57.818;15.224;2023-05-10T04:29:53;6.20;;;2.77;;
16159;SDS011;8185;57.818;15.224;2023-05-10T04:32:20;4.47;;;3.10;;
16159;SDS011;8185;57.818;15.224;2023-05-10T04:34:49;3.10;;;2.60;;
16159;SDS011;8185;57.818;15.224;2023-05-10T04:37:17;4.07;;;2.70;;
16159;SDS011;8185;57.818;15.224;2023-05-10T04:39:44;3.40;;;2.93;;
16159;SDS011;8185;57.818;15.224;2023-05-10T04:42:12;7.60;;;3.37;;
16159;SDS011;8185;57.818;15.224;2023-05-10T04:44:40;4.53;;;2.83;;
16159;SDS011;8185;57.818;15.224;2023-05-10T04:47:07;3.30;;;2.43;;
16159;SDS011;8185;57.818;15.224;2023-05-10T04:49:34;7.93;;;2.77;;
16159;SDS011;8185;57.818;15.224;2023-05-10T04:52:03;6.33;;;2.50;;
16159;SDS011;8185;57.818;15.224;2023-05-10T04:54:31;2.83;;;2.50;;
16159;SDS011;8185;57.818;15.224;2023-05-10T04:56:58;3.30;;;2.47;;
16159;SDS011;8185;57.818;15.224;2023-05-10T04:59:25;5.27;;;2.60;;
16159;SDS011;8185;57.818;15.224;2023-05-10T05:01:53;4.57;;;2.50;;
16159;SDS011;8185;57.818;15.224;2023-05-10T05:04:20;2.73;;;2.17;;
16159;SDS011;8185;57.818;15.224;2023-05-10T05:06:48;5.40;;;2.90;;
16159;SDS011;8185;57.818;15.224;2023-05-10T05:09:17;3.97;;;2.60;;
16159;SDS011;8185;57.818;15.224;2023-05-10T05:11:44;4.40;;;2.60;;
16159;SDS011;8185;57.818;15.224;2023-05-10T05:14:11;3.50;;;2.50;;
16159;SDS011;8185;57.818;15.224;2023-05-10T05:16:38;6.20;;;2.40;;
16159;SDS011;8185;57.818;15.224;2023-05-10T05:19:05;3.87;;;2.27;;
16159;SDS011;8185;57.818;15.224;2023-05-10T05:21:33;6.40;;;2.33;;
16159;SDS011;8185;57.818;15.224;2023-05-10T05:24:00;3.00;;;2.37;;
16159;SDS011;8185;57.818;15.224;2023-05-10T05:26:28;2.90;;;2.37;;
16159;SDS011;8185;57.818;15.224;2023-05-10T05:28:56;6.10;;;2.57;;
16159;SDS011;8185;57.818;15.224;2023-05-10T05:31:23;4.33;;;2.40;;
16159;SDS011;8185;57.818;15.224;2023-05-10T05:33:50;2.53;;;2.20;;
16159;SDS011;8185;57.818;15.224;2023-05-10T05:36:17;5.53;;;2.53;;
16159;SDS011;8185;57.818;15.224;2023-05-10T05:38:44;3.10;;;2.37;;
16159;SDS011;8185;57.818;15.224;2023-05-10T05:41:12;5.70;;;2.50;;
16159;SDS011;8185;57.818;15.224;2023-05-10T05:43:40;4.53;;;2.30;;
16159;SDS011;8185;57.818;15.224;2023-05-10T05:46:08;4.30;;;2.20;;
16159;SDS011;8185;57.818;15.224;2023-05-10T05:48:35;2.97;;;1.90;;
16159;SDS011;8185;57.818;15.224;2023-05-10T05:51:02;3.93;;;2.37;;
16159;SDS011;8185;57.818;15.224;2023-05-10T05:53:29;4.20;;;1.80;;
16159;SDS011;8185;57.818;15.224;2023-05-10T05:55:57;6.17;;;1.97;;
16159;SDS011;8185;57.818;15.224;2023-05-10T05:58:25;7.03;;;2.10;;
16159;SDS011;8185;57.818;15.224;2023-05-10T06:00:54;4.53;;;2.40;;
16159;SDS011;8185;57.818;15.224;2023-05-10T06:03:21;5.93;;;2.00;;
16159;SDS011;8185;57.818;15.224;2023-05-10T06:05:49;8.27;;;2.63;;
16159;SDS011;8185;57.818;15.224;2023-05-10T06:08:16;4.70;;;2.20;;
16159;SDS011;8185;57.818;15.224;2023-05-10T06:10:43;6.53;;;2.50;;
16159;SDS011;8185;57.818;15.224;2023-05-10T06:13:11;5.97;;;2.10;;
16159;SDS011;8185;57.818;15.224;2023-05-10T06:15:38;3.67;;;1.80;;
16159;SDS011;8185;57.818;15.224;2023-05-10T06:18:06;2.43;;;2.13;;
16159;SDS011;8185;57.818;15.224;2023-05-10T06:20:34;2.50;;;2.07;;
16159;SDS011;8185;57.818;15.224;2023-05-10T06:23:01;3.77;;;2.47;;
16159;SDS011;8185;57.818;15.224;2023-05-10T06:25:28;5.37;;;2.13;;
16159;SDS011;8185;57.818;15.224;2023-05-10T06:27:55;2.97;;;1.90;;
16159;SDS011;8185;57.818;15.224;2023-05-10T06:30:23;3.73;;;1.87;;
16159;SDS011;8185;57.818;15.224;2023-05-10T06:32:53;2.50;;;2.03;;
16159;SDS011;8185;57.818;15.224;2023-05-10T06:35:22;3.87;;;1.70;;
16159;SDS011;8185;57.818;15.224;2023-05-10T06:37:50;4.43;;;2.03;;
16159;SDS011;8185;57.818;15.224;2023-05-10T06:40:17;3.37;;;2.20;;
16159;SDS011;8185;57.818;15.224;2023-05-10T06:42:45;3.07;;;2.03;;
16159;SDS011;8185;57.818;15.224;2023-05-10T06:45:12;3.70;;;1.97;;
16159;SDS011;8185;57.818;15.224;2023-05-10T06:47:40;6.80;;;2.10;;
16159;SDS011;8185;57.818;15.224;2023-05-10T06:50:08;3.23;;;2.07;;
16159;SDS011;8185;57.818;15.224;2023-05-10T06:52:37;2.17;;;1.77;;
16159;SDS011;8185;57.818;15.224;2023-05-10T06:55:05;4.37;;;2.20;;
16159;SDS011;8185;57.818;15.224;2023-05-10T06:57:33;3.73;;;1.80;;
16159;SDS011;8185;57.818;15.224;2023-05-10T07:00:01;4.80;;;2.17;;
16159;SDS011;8185;57.818;15.224;2023-05-10T07:02:30;3.03;;;2.03;;
16159;SDS011;8185;57.818;15.224;2023-05-10T07:04:57;3.43;;;2.03;;
16159;SDS011;8185;57.818;15.224;2023-05-10T07:07:25;2.87;;;1.87;;
16159;SDS011;8185;57.818;15.224;2023-05-10T07:09:53;3.20;;;2.10;;
16159;SDS011;8185;57.818;15.224;2023-05-10T07:12:21;3.50;;;2.10;;
16159;SDS011;8185;57.818;15.224;2023-05-10T07:14:48;3.63;;;2.27;;
16159;SDS011;8185;57.818;15.224;2023-05-10T07:17:16;1.73;;;1.60;;
16159;SDS011;8185;57.818;15.224;2023-05-10T07:19:43;2.53;;;1.70;;
16159;SDS011;8185;57.818;15.224;2023-05-10T07:22:10;3.33;;;1.73;;
16159;SDS011;8185;57.818;15.224;2023-05-10T07:24:38;4.33;;;1.90;;
16159;SDS011;8185;57.818;15.224;2023-05-10T07:27:07;3.13;;;2.10;;
16159;SDS011;8185;57.818;15.224;2023-05-10T07:29:34;3.07;;;2.10;;
16159;SDS011;8185;57.818;15.224;2023-05-10T07:32:01;4.30;;;1.90;;
16159;SDS011;8185;57.818;15.224;2023-05-10T07:34:28;6.93;;;1.90;;
16159;SDS011;8185;57.818;15.224;2023-05-10T07:36:57;1.77;;;1.53;;
16159;SDS011;8185;57.818;15.224;2023-05-10T07:39:25;3.73;;;1.90;;
16159;SDS011;8185;57.818;15.224;2023-05-10T07:41:52;2.23;;;1.77;;
16159;SDS011;8185;57.818;15.224;2023-05-10T07:44:21;1.90;;;1.70;;
16159;SDS011;8185;57.818;15.224;2023-05-10T07:46:48;4.50;;;1.87;;
16159;SDS011;8185;57.818;15.224;2023-05-10T07:49:15;3.77;;;2.10;;
16159;SDS011;8185;57.818;15.224;2023-05-10T07:51:43;4.37;;;1.83;;
16159;SDS011;8185;57.818;15.224;2023-05-10T07:54:10;3.50;;;1.87;;
16159;SDS011;8185;57.818;15.224;2023-05-10T07:56:37;3.70;;;2.10;;
16159;SDS011;8185;57.818;15.224;2023-05-10T07:59:07;2.80;;;2.20;;
16159;SDS011;8185;57.818;15.224;2023-05-10T08:01:36;6.07;;;1.83;;
16159;SDS011;8185;57.818;15.224;2023-05-10T08:04:03;3.47;;;2.20;;
16159;SDS011;8185;57.818;15.224;2023-05-10T08:06:30;3.10;;;1.80;;
16159;SDS011;8185;57.818;15.224;2023-05-10T08:08:57;2.13;;;1.60;;
16159;SDS011;8185;57.818;15.224;2023-05-10T08:11:25;8.83;;;2.47;;
16159;SDS011;8185;57.818;15.224;2023-05-10T08:13:52;3.37;;;1.90;;
16159;SDS011;8185;57.818;15.224;2023-05-10T08:16:20;3.43;;;1.77;;
16159;SDS011;8185;57.818;15.224;2023-05-10T08:18:48;5.43;;;1.97;;
16159;SDS011;8185;57.818;15.224;2023-05-10T08:21:16;3.80;;;2.00;;
16159;SDS011;8185;57.818;15.224;2023-05-10T08:23:43;3.03;;;1.87;;
16159;SDS011;8185;57.818;15.224;2023-05-10T08:26:11;3.43;;;2.00;;
16159;SDS011;8185;57.818;15.224;2023-05-10T08:28:39;2.17;;;2.07;;
16159;SDS011;8185;57.818;15.224;2023-05-10T08:31:06;2.07;;;1.80;;
16159;SDS011;8185;57.818;15.224;2023-05-10T08:33:33;3.37;;;1.93;;
16159;SDS011;8185;57.818;15.224;2023-05-10T08:36:01;2.53;;;1.83;;
16159;SDS011;8185;57.818;15.224;2023-05-10T08:38:29;3.83;;;2.57;;
16159;SDS011;8185;57.818;15.224;2023-05-10T08:40:56;2.70;;;2.07;;
16159;SDS011;8185;57.818;15.224;2023-05-10T08:43:25;3.67;;;2.00;;
16159;SDS011;8185;57.818;15.224;2023-05-10T08:45:54;2.60;;;1.73;;
16159;SDS011;8185;57.818;15.224;2023-05-10T08:48:23;3.17;;;1.77;;
16159;SDS011;8185;57.818;15.224;2023-05-10T08:50:52;3.83;;;1.80;;
16159;SDS011;8185;57.818;15.224;2023-05-10T08:53:22;2.20;;;1.63;;
16159;SDS011;8185;57.818;15.224;2023-05-10T08:55:52;2.33;;;2.00;;
16159;SDS011;8185;57.818;15.224;2023-05-10T08:58:19;2.37;;;1.87;;
16159;SDS011;8185;57.818;15.224;2023-05-10T09:00:48;3.00;;;2.10;;
16159;SDS011;8185;57.818;15.224;2023-05-10T09:03:17;3.00;;;1.77;;
16159;SDS011;8185;57.818;15.224;2023-05-10T09:05:44;16.17;;;2.80;;
16159;SDS011;8185;57.818;15.224;2023-05-10T09:08:12;4.43;;;1.80;;
16159;SDS011;8185;57.818;15.224;2023-05-10T09:10:42;2.13;;;1.73;;
16159;SDS011;8185;57.818;15.224;2023-05-10T09:13:12;3.20;;;1.93;;
16159;SDS011;8185;57.818;15.224;2023-05-10T09:15:40;7.00;;;2.10;;
16159;SDS011;8185;57.818;15.224;2023-05-10T09:18:07;3.50;;;1.90;;
16159;SDS011;8185;57.818;15.224;2023-05-10T09:20:35;2.70;;;1.83;;
16159;SDS011;8185;57.818;15.224;2023-05-10T09:23:02;5.70;;;1.87;;
16159;SDS011;8185;57.818;15.224;2023-05-10T09:25:30;5.27;;;1.60;;
16159;SDS011;8185;57.818;15.224;2023-05-10T09:27:59;2.93;;;1.60;;
16159;SDS011;8185;57.818;15.224;2023-05-10T09:30:27;3.03;;;1.77;;
16159;SDS011;8185;57.818;15.224;2023-05-10T09:32:56;4.20;;;1.80;;
16159;SDS011;8185;57.818;15.224;2023-05-10T09:35:24;3.07;;;1.70;;
16159;SDS011;8185;57.818;15.224;2023-05-10T09:37:52;3.57;;;2.10;;
16159;SDS011;8185;57.818;15.224;2023-05-10T09:40:21;2.73;;;1.90;;
16159;SDS011;8185;57.818;15.224;2023-05-10T09:42:53;2.63;;;1.77;;
16159;SDS011;8185;57.818;15.224;2023-05-10T09:45:24;1.57;;;1.47;;
16159;SDS011;8185;57.818;15.224;2023-05-10T09:47:52;2.83;;;1.63;;
16159;SDS011;8185;57.818;15.224;2023-05-10T09:50:20;7.43;;;1.70;;
16159;SDS011;8185;57.818;15.224;2023-05-10T09:52:49;3.57;;;1.63;;
16159;SDS011;8185;57.818;15.224;2023-05-10T09:55:18;6.30;;;1.80;;
16159;SDS011;8185;57.818;15.224;2023-05-10T09:57:46;4.80;;;1.80;;
16159;SDS011;8185;57.818;15.224;2023-05-10T10:00:17;1.70;;;1.60;;
16159;SDS011;8185;57.818;15.224;2023-05-10T10:02:47;2.53;;;1.80;;
16159;SDS011;8185;57.818;15.224;2023-05-10T10:05:20;3.87;;;2.03;;
16159;SDS011;8185;57.818;15.224;2023-05-10T10:07:47;2.50;;;1.70;;
16159;SDS011;8185;57.818;15.224;2023-05-10T10:10:15;1.97;;;1.83;;
16159;SDS011;8185;57.818;15.224;2023-05-10T10:12:43;3.40;;;2.20;;
16159;SDS011;8185;57.818;15.224;2023-05-10T10:15:10;3.20;;;1.90;;
16159;SDS011;8185;57.818;15.224;2023-05-10T10:17:38;6.00;;;1.77;;
16159;SDS011;8185;57.818;15.224;2023-05-10T10:20:09;6.07;;;1.90;;
16159;SDS011;8185;57.818;15.224;2023-05-10T10:22:37;3.53;;;1.57;;
16159;SDS011;8185;57.818;15.224;2023-05-10T10:25:04;3.43;;;1.47;;
16159;SDS011;8185;57.818;15.224;2023-05-10T10:27:35;2.27;;;1.80;;
16159;SDS011;8185;57.818;15.224;2023-05-10T10:30:13;2.00;;;1.60;;
16159;SDS011;8185;57.818;15.224;2023-05-10T10:32:55;2.17;;;1.73;;
16159;SDS011;8185;57.818;15.224;2023-05-10T10:35:36;2.80;;;1.77;;
16159;SDS011;8185;57.818;15.224;2023-05-10T10:38:04;4.07;;;1.85;;
16159;SDS011;8185;57.818;15.224;2023-05-10T10:40:34;3.28;;;1.75;;
16159;SDS011;8185;57.818;15.224;2023-05-10T10:43:22;2.20;;;1.42;;
16159;SDS011;8185;57.818;15.224;2023-05-10T10:46:10;3.63;;;1.33;;
16159;SDS011;8185;57.818;15.224;2023-05-10T10:48:39;3.47;;;1.55;;
16159;SDS011;8185;57.818;15.224;2023-05-10T10:51:08;1.90;;;1.52;;
16159;SDS011;8185;57.818;15.224;2023-05-10T10:53:36;3.97;;;1.67;;
16159;SDS011;8185;57.818;15.224;2023-05-10T10:56:08;3.45;;;2.08;;
16159;SDS011;8185;57.818;15.224;2023-05-10T10:58:37;2.30;;;1.60;;
16159;SDS011;8185;57.818;15.224;2023-05-10T11:01:11;3.97;;;1.92;;
16159;SDS011;8185;57.818;15.224;2023-05-10T11:03:40;3.25;;;1.60;;
16159;SDS011;8185;57.818;15.224;2023-05-10T11:06:29;2.83;;;1.67;;
16159;SDS011;8185;57.818;15.224;2023-05-10T11:08:58;4.18;;;1.63;;
16159;SDS011;8185;57.818;15.224;2023-05-10T11:11:25;2.28;;;1.33;;
16159;SDS011;8185;57.818;15.224;2023-05-10T11:13:53;4.60;;;1.40;;
16159;SDS011;8185;57.818;15.224;2023-05-10T11:16:28;7.55;;;1.60;;
16159;SDS011;8185;57.818;15.224;2023-05-10T11:19:08;3.47;;;1.52;;
16159;SDS011;8185;57.818;15.224;2023-05-10T11:21:46;2.63;;;1.60;;
16159;SDS011;8185;57.818;15.224;2023-05-10T11:24:16;3.38;;;1.50;;
16159;SDS011;8185;57.818;15.224;2023-05-10T11:26:44;2.22;;;1.50;;
16159;SDS011;8185;57.818;15.224;2023-05-10T11:29:12;3.00;;;1.50;;
16159;SDS011;8185;57.818;15.224;2023-05-10T11:31:42;1.63;;;1.30;;
16159;SDS011;8185;57.818;15.224;2023-05-10T11:34:11;1.80;;;1.50;;
16159;SDS011;8185;57.818;15.224;2023-05-10T11:36:52;3.60;;;1.60;;
16159;SDS011;8185;57.818;15.224;2023-05-10T11:39:20;4.45;;;1.70;;
16159;SDS011;8185;57.818;15.224;2023-05-10T11:41:48;3.28;;;1.33;;
16159;SDS011;8185;57.818;15.224;2023-05-10T11:44:16;2.53;;;1.50;;
16159;SDS011;8185;57.818;15.224;2023-05-10T11:46:43;3.08;;;1.45;;
16159;SDS011;8185;57.818;15.224;2023-05-10T11:49:10;3.25;;;1.55;;
16159;SDS011;8185;57.818;15.224;2023-05-10T11:51:38;4.18;;;1.52;;
16159;SDS011;8185;57.818;15.224;2023-05-10T11:54:09;3.03;;;1.60;;
16159;SDS011;8185;57.818;15.224;2023-05-10T11:56:37;2.47;;;1.65;;
16159;SDS011;8185;57.818;15.224;2023-05-10T11:59:04;3.38;;;1.50;;
16159;SDS011;8185;57.818;15.224;2023-05-10T12:01:33;1.88;;;1.30;;
16159;SDS011;8185;57.818;15.224;2023-05-10T12:04:00;3.58;;;1.80;;
16159;SDS011;8185;57.818;15.224;2023-05-10T12:06:28;4.13;;;2.03;;
16159;SDS011;8185;57.818;15.224;2023-05-10T12:08:56;1.60;;;1.35;;
16159;SDS011;8185;57.818;15.224;2023-05-10T12:11:26;1.70;;;1.38;;
16159;SDS011;8185;57.818;15.224;2023-05-10T12:13:54;3.63;;;1.70;;
16159;SDS011;8185;57.818;15.224;2023-05-10T12:16:23;4.45;;;1.70;;
16159;SDS011;8185;57.818;15.224;2023-05-10T12:18:51;2.42;;;1.50;;
16159;SDS011;8185;57.818;15.224;2023-05-10T12:21:19;3.58;;;1.50;;
16159;SDS011;8185;57.818;15.224;2023-05-10T12:23:48;1.50;;;1.25;;
16159;SDS011;8185;57.818;15.224;2023-05-10T12:26:17;3.05;;;1.70;;
16159;SDS011;8185;57.818;15.224;2023-05-10T12:28:46;3.75;;;1.45;;
16159;SDS011;8185;57.818;15.224;2023-05-10T12:31:13;1.88;;;1.35;;
16159;SDS011;8185;57.818;15.224;2023-05-10T12:33:41;2.42;;;1.42;;
16159;SDS011;8185;57.818;15.224;2023-05-10T12:36:09;3.22;;;1.20;;
16159;SDS011;8185;57.818;15.224;2023-05-10T12:38:38;3.05;;;1.55;;
16159;SDS011;8185;57.818;15.224;2023-05-10T12:41:08;3.50;;;1.50;;
16159;SDS011;8185;57.818;15.224;2023-05-10T12:43:37;3.38;;;1.40;;
16159;SDS011;8185;57.818;15.224;2023-05-10T12:46:06;3.35;;;1.30;;
16159;SDS011;8185;57.818;15.224;2023-05-10T12:48:34;4.82;;;1.50;;
16159;SDS011;8185;57.818;15.224;2023-05-10T12:51:02;3.95;;;1.52;;
16159;SDS011;8185;57.818;15.224;2023-05-10T12:53:29;3.38;;;1.35;;
16159;SDS011;8185;57.818;15.224;2023-05-10T12:55:57;4.72;;;1.58;;
16159;SDS011;8185;57.818;15.224;2023-05-10T12:58:24;3.40;;;1.42;;
16159;SDS011;8185;57.818;15.224;2023-05-10T13:00:51;1.85;;;1.40;;
16159;SDS011;8185;57.818;15.224;2023-05-10T13:03:20;3.33;;;1.40;;
16159;SDS011;8185;57.818;15.224;2023-05-10T13:05:47;2.03;;;1.30;;
16159;SDS011;8185;57.818;15.224;2023-05-10T13:08:15;2.08;;;1.30;;
16159;SDS011;8185;57.818;15.224;2023-05-10T13:10:42;1.25;;;1.15;;
16159;SDS011;8185;57.818;15.224;2023-05-10T13:13:09;3.92;;;1.17;;
16159;SDS011;8185;57.818;15.224;2023-05-10T13:15:36;2.92;;;1.45;;
16159;SDS011;8185;57.818;15.224;2023-05-10T13:18:04;3.03;;;1.40;;
16159;SDS011;8185;57.818;15.224;2023-05-10T13:20:32;2.00;;;1.27;;
16159;SDS011;8185;57.818;15.224;2023-05-10T13:23:00;2.67;;;1.40;;
16159;SDS011;8185;57.818;15.224;2023-05-10T13:25:27;1.85;;;1.45;;
16159;SDS011;8185;57.818;15.224;2023-05-10T13:27:55;1.27;;;1.08;;
16159;SDS011;8185;57.818;15.224;2023-05-10T13:30:22;1.58;;;1.10;;
16159;SDS011;8185;57.818;15.224;2023-05-10T13:32:50;2.95;;;1.20;;
16159;SDS011;8185;57.818;15.224;2023-05-10T13:35:17;2.65;;;1.55;;
16159;SDS011;8185;57.818;15.224;2023-05-10T13:37:46;3.17;;;1.48;;
16159;SDS011;8185;57.818;15.224;2023-05-10T13:40:13;4.13;;;1.30;;
16159;SDS011;8185;57.818;15.224;2023-05-10T13:42:40;1.73;;;1.42;;
16159;SDS011;8185;57.818;15.224;2023-05-10T13:45:08;3.97;;;1.50;;
16159;SDS011;8185;57.818;15.224;2023-05-10T13:47:37;1.30;;;1.00;;
16159;SDS011;8185;57.818;15.224;2023-05-10T13:50:04;2.78;;;1.40;;
16159;SDS011;8185;57.818;15.224;2023-05-10T13:52:32;3.60;;;1.20;;
16159;SDS011;8185;57.818;15.224;2023-05-10T13:55:01;3.63;;;1.60;;
16159;SDS011;8185;57.818;15.224;2023-05-10T13:57:29;1.35;;;1.13;;
16159;SDS011;8185;57.818;15.224;2023-05-10T13:59:56;2.53;;;1.60;;
16159;SDS011;8185;57.818;15.224;2023-05-10T14:02:23;1.73;;;1.15;;
16159;SDS011;8185;57.818;15.224;2023-05-10T14:04:52;5.68;;;1.13;;
16159;SDS011;8185;57.818;15.224;2023-05-10T14:07:19;4.38;;;1.42;;
16159;SDS011;8185;57.818;15.224;2023-05-10T14:09:47;2.13;;;1.20;;
16159;SDS011;8185;57.818;15.224;2023-05-10T14:12:15;4.47;;;1.30;;
16159;SDS011;8185;57.818;15.224;2023-05-10T14:14:43;3.30;;;1.50;;
16159;SDS011;8185;57.818;15.224;2023-05-10T14:17:10;4.25;;;1.20;;
16159;SDS011;8185;57.818;15.224;2023-05-10T14:19:37;4.38;;;1.90;;
16159;SDS011;8185;57.818;15.224;2023-05-10T14:22:05;3.15;;;1.30;;
16159;SDS011;8185;57.818;15.224;2023-05-10T14:24:32;3.30;;;1.65;;
16159;SDS011;8185;57.818;15.224;2023-05-10T14:26:59;3.00;;;1.30;;
16159;SDS011;8185;57.818;15.224;2023-05-10T14:29:28;1.95;;;1.40;;
16159;SDS011;8185;57.818;15.224;2023-05-10T14:31:55;1.17;;;1.08;;
16159;SDS011;8185;57.818;15.224;2023-05-10T14:34:22;4.35;;;1.60;;
16159;SDS011;8185;57.818;15.224;2023-05-10T14:36:49;4.22;;;1.63;;
16159;SDS011;8185;57.818;15.224;2023-05-10T14:39:17;4.22;;;1.33;;
16159;SDS011;8185;57.818;15.224;2023-05-10T14:41:44;2.53;;;1.35;;
16159;SDS011;8185;57.818;15.224;2023-05-10T14:44:12;1.63;;;1.13;;
16159;SDS011;8185;57.818;15.224;2023-05-10T14:46:42;3.33;;;1.30;;
16159;SDS011;8185;57.818;15.224;2023-05-10T14:49:09;3.78;;;1.30;;
16159;SDS011;8185;57.818;15.224;2023-05-10T14:51:36;5.78;;;1.58;;
16159;SDS011;8185;57.818;15.224;2023-05-10T14:54:03;4.53;;;1.23;;
16159;SDS011;8185;57.818;15.224;2023-05-10T14:56:31;2.25;;;1.30;;
16159;SDS011;8185;57.818;15.224;2023-05-10T14:58:58;3.17;;;1.10;;
16159;SDS011;8185;57.818;15.224;2023-05-10T15:01:25;4.13;;;1.20;;